Time;durP1;ratioP1;P1;durP2;ratioP2;P2;SDS_P1;SDS_P2;PMS_P1;PMS_P2;Temp;Humidity;BMP_temperature;BMP_pressure;BME280_temperature;BME280_humidity;BME280_pressure;Samples;Min_cycle;Max_cycle;Signal;HPM_P1;HPM_P2
2021/04/05 00:00:10;;;;;;;11.83;9.13;;;2.90;99.90;;;3.69;67.47;97741.81;5143828;28;20227;-52
2021/04/05 00:02:42;;;;;;;9.60;8.60;;;2.70;99.90;;;3.67;67.61;97738.28;5144309;28;20326;-53
2021/04/05 00:05:17;;;;;;;9.07;8.27;;;2.70;99.90;;;3.60;67.51;97741.06;5143577;28;20660;-55
2021/04/05 00:07:49;;;;;;;9.13;8.23;;;2.60;99.90;;;3.58;68.00;97738.41;5143332;28;20680;-55
2021/04/05 00:10:25;;;;;;;9.23;8.33;;;2.60;99.90;;;3.59;68.22;97732.59;5143682;28;20204;-53
2021/04/05 00:13:01;;;;;;;11.13;8.13;;;2.60;99.90;;;3.55;67.69;97735.66;5144478;28;20722;-54
2021/04/05 00:15:34;;;;;;;9.20;8.30;;;2.60;99.90;;;3.58;68.18;97733.38;5143884;28;20697;-53
2021/04/05 00:18:06;;;;;;;9.63;7.77;;;2.60;99.90;;;3.56;68.23;97734.00;5143455;28;20295;-56
2021/04/05 00:20:45;;;;;;;9.27;7.63;;;2.60;99.90;;;3.56;68.02;97718.84;5144127;28;20208;-57
2021/04/05 00:23:18;;;;;;;8.27;7.30;;;2.60;99.90;;;3.49;68.08;97717.47;5146904;28;20605;-54
2021/04/05 00:25:50;;;;;;;8.27;7.37;;;2.50;99.90;;;3.33;68.47;97716.97;5147386;28;20210;-54
2021/04/05 00:28:23;;;;;;;8.00;7.03;;;2.30;99.90;;;3.31;68.51;97713.41;5147064;28;20310;-53
2021/04/05 00:30:56;;;;;;;8.27;7.47;;;2.30;99.90;;;3.23;69.30;97709.38;5147067;28;20635;-56
2021/04/05 00:33:28;;;;;;;9.03;7.03;;;2.30;99.90;;;3.25;68.83;97695.25;5147609;28;20703;-54
2021/04/05 00:36:00;;;;;;;7.67;6.97;;;2.40;99.90;;;3.19;69.43;97694.75;5147013;28;20679;-56
2021/04/05 00:38:32;;;;;;;7.60;7.00;;;2.30;99.90;;;3.12;69.42;97694.22;5130404;28;20291;-53
2021/04/05 00:41:11;;;;;;;9.00;7.57;;;2.20;99.90;;;3.05;69.62;97694.47;5147004;28;20267;-53
2021/04/05 00:43:47;;;;;;;8.83;7.23;;;2.20;99.90;;;3.11;69.21;97694.97;5147578;28;20306;-55
2021/04/05 00:46:21;;;;;;;8.93;7.93;;;2.20;99.90;;;3.12;69.78;97701.81;5139027;28;20202;-55
2021/04/05 00:48:54;;;;;;;10.90;8.37;;;2.30;99.90;;;3.12;69.29;97689.19;5146931;28;20569;-54
2021/04/05 00:51:27;;;;;;;9.60;8.20;;;2.30;99.90;;;3.20;69.44;97696.50;5146988;28;20206;-53
2021/04/05 00:53:59;;;;;;;7.73;7.07;;;2.30;99.90;;;3.19;69.73;97692.22;5147026;28;20770;-55
2021/04/05 00:56:32;;;;;;;8.37;7.40;;;2.30;99.90;;;3.17;69.71;97687.03;5162177;28;20199;-53
2021/04/05 00:59:05;;;;;;;7.97;7.17;;;2.30;99.90;;;3.19;69.62;97684.63;5150349;28;20290;-55
2021/04/05 01:01:37;;;;;;;9.33;8.07;;;2.20;99.90;;;3.09;69.64;97673.78;5140897;28;20214;-52
2021/04/05 01:04:09;;;;;;;10.37;7.60;;;2.20;99.90;;;3.06;69.45;97672.63;5146826;28;20522;-53
2021/04/05 01:06:41;;;;;;;8.37;7.57;;;2.10;99.90;;;3.02;69.28;97663.03;5146666;28;20196;-56
2021/04/05 01:09:13;;;;;;;9.10;7.10;;;2.10;99.90;;;3.04;69.67;97661.53;5146597;28;20224;-55
2021/04/05 01:11:45;;;;;;;8.33;7.53;;;2.10;99.90;;;2.89;69.86;97659.50;5146797;28;20726;-53
2021/04/05 01:14:18;;;;;;;9.20;8.20;;;2.00;99.90;;;2.93;70.05;97660.66;5146379;28;20206;-53
2021/04/05 01:16:50;;;;;;;9.03;7.20;;;2.10;99.90;;;2.94;69.77;97657.34;5146360;28;20297;-55
2021/04/05 01:19:22;;;;;;;8.43;7.63;;;2.00;99.90;;;2.98;69.76;97659.38;5146760;28;20709;-54
2021/04/05 01:21:56;;;;;;;9.00;8.10;;;2.10;99.90;;;2.98;69.86;97644.25;5146144;28;20299;-53
2021/04/05 01:24:28;;;;;;;9.10;8.20;;;2.00;99.90;;;3.06;69.67;97642.31;5145632;28;20672;-54
2021/04/05 01:27:00;;;;;;;8.23;7.53;;;2.00;99.90;;;2.99;69.16;97627.44;5146217;28;20317;-53
2021/04/05 01:29:32;;;;;;;8.77;7.60;;;2.00;99.90;;;2.87;69.55;97628.22;5130623;28;20278;-53
2021/04/05 01:32:06;;;;;;;8.67;7.87;;;1.90;99.90;;;2.67;70.06;97620.63;5146216;28;20721;-55
2021/04/05 01:34:38;;;;;;;9.80;8.33;;;1.70;99.90;;;2.46;70.70;97632.31;5146237;28;20578;-53
2021/04/05 01:37:11;;;;;;;9.57;8.60;;;1.60;99.90;;;2.44;71.45;97632.19;5145676;28;20664;-52
2021/04/05 01:39:43;;;;;;;8.67;7.80;;;1.60;99.90;;;2.43;71.47;97639.63;5146216;28;20671;-53
2021/04/05 01:42:15;;;;;;;8.73;7.77;;;1.50;99.90;;;2.50;71.73;97636.88;5146168;28;20245;-54
2021/04/05 01:44:48;;;;;;;9.07;8.03;;;1.60;99.90;;;2.52;71.48;97630.34;5146074;28;20197;-56
2021/04/05 01:47:20;;;;;;;9.13;8.23;;;1.70;99.90;;;2.56;71.47;97611.28;5145416;28;20667;-55
2021/04/05 01:49:52;;;;;;;9.30;8.40;;;1.70;99.90;;;2.54;70.66;97613.66;5145528;28;20314;-54
2021/04/05 01:52:25;;;;;;;8.23;7.50;;;1.70;99.90;;;2.50;70.96;97606.63;5145530;28;20642;-54
2021/04/05 01:55:01;;;;;;;9.97;7.73;;;1.60;99.90;;;2.45;70.55;97616.31;5145075;28;20304;-55
2021/04/05 01:57:33;;;;;;;9.33;8.43;;;1.50;99.90;;;2.40;71.38;97609.09;5145320;28;20645;-53
2021/04/05 02:00:09;;;;;;;8.43;7.63;;;1.50;99.90;;;2.25;71.41;97599.50;5145426;28;20197;-56
2021/04/05 02:02:42;;;;;;;9.63;8.07;;;1.40;99.90;;;2.20;71.59;97600.78;5126290;28;20236;-54
2021/04/05 02:05:17;;;;;;;7.93;7.03;;;1.40;99.90;;;2.19;71.88;97598.97;5131159;28;20224;-55
2021/04/05 02:07:51;;;;;;;12.23;8.43;;;1.40;99.90;;;2.14;71.49;97590.13;5145354;28;20200;-56
2021/04/05 02:10:25;;;;;;;9.33;8.43;;;1.30;99.90;;;2.21;71.95;97573.91;5133468;28;20251;-57
2021/04/05 02:12:58;;;;;;;9.17;8.23;;;1.30;99.90;;;2.22;72.93;97563.94;5145524;28;20227;-53
2021/04/05 02:15:34;;;;;;;10.47;9.03;;;1.30;99.90;;;2.28;72.54;97567.75;5144969;28;20201;-53
2021/04/05 02:18:07;;;;;;;9.50;8.70;;;1.40;99.90;;;2.22;71.94;97570.63;5145135;28;20230;-53
2021/04/05 02:20:40;;;;;;;9.90;9.10;;;1.40;99.90;;;2.33;72.28;97561.44;5145407;28;20296;-52
2021/04/05 02:23:13;;;;;;;10.10;8.47;;;1.50;99.90;;;2.36;71.47;97557.53;5145160;28;20276;-54
2021/04/05 02:26:07;;;;;;;9.07;8.13;;;1.40;99.90;;;2.32;71.21;97547.06;5145081;28;20204;-54
2021/04/05 02:28:42;;;;;;;9.43;8.30;;;1.40;99.90;;;2.25;71.84;97538.97;5145134;28;20220;-53
2021/04/05 02:31:24;;;;;;;8.73;7.93;;;1.40;99.90;;;2.32;71.86;97544.53;5144995;28;20227;-56
2021/04/05 02:33:58;;;;;;;9.67;8.50;;;1.50;99.90;;;2.33;71.93;97532.06;5189716;23;20284;-56
2021/04/05 02:36:32;;;;;;;9.53;8.67;;;1.50;99.90;;;2.38;71.13;97525.78;5188228;28;20200;-55
2021/04/05 02:39:10;;;;;;;10.80;9.33;;;1.50;99.90;;;2.39;71.73;97521.59;5190541;28;20569;-56
2021/04/05 02:41:45;;;;;;;9.90;8.40;;;1.50;99.90;;;2.42;71.86;97504.22;5182269;28;20195;-56
2021/04/05 02:44:19;;;;;;;9.73;8.37;;;1.60;99.90;;;2.43;71.01;97504.34;5205165;28;20268;-54
2021/04/05 02:46:52;;;;;;;9.10;8.20;;;1.50;99.90;;;2.29;70.90;97508.97;5186129;28;20678;-59
2021/04/05 02:49:24;;;;;;;9.23;8.33;;;1.40;99.90;;;2.24;71.00;97506.09;5185354;28;20313;-56
2021/04/05 02:51:58;;;;;;;9.87;8.97;;;1.40;99.90;;;2.27;71.22;97513.91;5175274;28;20199;-54
2021/04/05 02:54:31;;;;;;;9.10;8.20;;;1.40;99.90;;;2.21;71.14;97511.78;5186688;28;20214;-53
2021/04/05 02:57:04;;;;;;;9.70;8.77;;;1.30;99.90;;;2.23;72.27;97505.22;5170044;28;20290;-53
2021/04/05 02:59:36;;;;;;;9.97;9.07;;;1.40;99.90;;;2.20;71.45;97510.00;5184858;28;20200;-55
2021/04/05 03:02:09;;;;;;;8.87;8.00;;;1.40;99.90;;;2.28;72.18;97504.72;5185342;28;20225;-54
2021/04/05 03:04:41;;;;;;;9.37;8.20;;;1.40;99.90;;;2.30;71.28;97499.03;5184941;28;20211;-58
2021/04/05 03:07:13;;;;;;;9.37;8.57;;;1.30;99.90;;;2.34;71.60;97497.66;5176242;28;20234;-55
2021/04/05 03:09:46;;;;;;;10.53;8.93;;;1.30;99.90;;;2.28;71.87;97487.06;5194117;28;20309;-55
2021/04/05 03:12:19;;;;;;;9.30;8.50;;;1.30;99.90;;;2.21;72.00;97490.72;5183238;28;20200;-56
2021/04/05 03:14:52;;;;;;;9.47;8.60;;;1.30;99.90;;;2.18;71.42;97485.44;5181720;28;20191;-57
2021/04/05 03:17:25;;;;;;;10.63;7.93;;;1.30;99.90;;;2.16;71.80;97472.69;5204746;28;20564;-56
2021/04/05 03:20:00;;;;;;;9.90;8.30;;;1.30;99.90;;;2.17;71.75;97484.53;5200902;28;20745;-55
2021/04/05 03:22:33;;;;;;;9.23;8.33;;;1.30;99.90;;;2.13;72.09;97490.06;5170825;28;20290;-55
2021/04/05 03:25:14;;;;;;;9.90;8.90;;;1.20;99.90;;;2.07;72.63;97492.09;5174736;28;20591;-57
2021/04/05 03:27:49;;;;;;;8.97;8.27;;;1.20;99.90;;;2.09;72.62;97484.63;5183072;28;20658;-55
2021/04/05 03:30:27;;;;;;;9.90;8.87;;;1.20;99.90;;;2.15;73.13;97475.09;5184195;28;20760;-55
2021/04/05 03:33:07;;;;;;;9.10;8.37;;;1.30;99.90;;;2.18;72.05;97453.53;5184171;28;20639;-56
2021/04/05 03:35:43;;;;;;;8.77;8.00;;;1.30;99.90;;;2.18;71.60;97451.00;5183504;28;20206;-55
2021/04/05 03:38:15;;;;;;;10.03;9.03;;;1.30;99.90;;;2.14;71.13;97440.53;5184280;28;20203;-52
2021/04/05 03:40:48;;;;;;;9.43;8.47;;;1.10;99.90;;;1.89;72.63;97430.06;5194422;28;20207;-56
2021/04/05 03:43:29;;;;;;;9.97;9.07;;;0.90;99.90;;;1.70;73.04;97428.53;5184737;28;20223;-56
2021/04/05 03:46:11;;;;;;;10.23;9.37;;;0.80;99.90;;;1.65;73.51;97418.84;5184482;28;20202;-56
2021/04/05 03:48:55;;;;;;;10.47;9.33;;;0.80;99.90;;;1.72;74.37;97411.94;5184704;28;20228;-56
2021/04/05 03:51:34;;;;;;;10.20;9.07;;;0.90;99.90;;;1.75;74.50;97409.66;5182857;28;20370;-55
2021/04/05 03:54:09;;;;;;;11.57;9.67;;;1.00;99.90;;;1.84;74.21;97407.03;5184558;28;20321;-54
2021/04/05 03:56:45;;;;;;;10.43;9.23;;;1.10;99.90;;;1.96;73.86;97397.94;5176167;28;20556;-56
2021/04/05 03:59:24;;;;;;;9.40;8.50;;;1.20;99.90;;;2.02;73.73;97395.94;5195029;28;20193;-55
2021/04/05 04:01:59;;;;;;;9.30;8.40;;;1.20;99.90;;;2.08;73.66;97398.06;5170642;28;20205;-55
2021/04/05 04:04:33;;;;;;;11.87;9.23;;;1.30;99.90;;;2.15;73.48;97389.38;5168265;28;20225;-56
2021/04/05 04:07:16;;;;;;;9.27;8.37;;;1.30;99.90;;;2.14;73.63;97393.53;5182726;28;20206;-53
2021/04/05 04:09:51;;;;;;;9.67;8.77;;;1.20;99.90;;;2.11;73.55;97408.41;5188532;28;20258;-54
2021/04/05 04:12:25;;;;;;;10.63;8.77;;;1.20;99.90;;;2.17;73.10;97392.88;5182244;28;20229;-54
2021/04/05 04:14:58;;;;;;;13.17;10.83;;;1.30;99.90;;;2.15;73.13;97405.38;5188706;28;20206;-54
2021/04/05 04:17:34;;;;;;;16.23;13.40;;;1.30;99.90;;;2.07;73.18;97408.91;5187938;28;20286;-56
2021/04/05 04:20:10;;;;;;;10.30;8.80;;;1.20;99.90;;;1.93;72.24;97406.91;5188307;28;20293;-57
2021/04/05 04:22:44;;;;;;;9.77;8.57;;;1.10;99.90;;;1.78;73.03;97404.88;5169864;28;20763;-54
2021/04/05 04:25:19;;;;;;;10.20;9.20;;;0.90;99.90;;;1.76;73.27;97388.75;5179790;28;21020;-53
2021/04/05 04:27:53;;;;;;;11.13;9.53;;;0.90;99.90;;;1.72;73.99;97390.91;5186019;28;20201;-56
2021/04/05 04:30:32;;;;;;;9.90;9.00;;;1.00;99.90;;;1.73;74.35;97382.56;5187990;28;20309;-55
2021/04/05 04:33:07;;;;;;;9.70;8.73;;;0.90;99.90;;;1.73;74.19;97373.38;5167743;28;20725;-55
2021/04/05 04:35:41;;;;;;;10.50;9.37;;;0.90;99.90;;;1.73;74.91;97378.41;5168922;28;20678;-55
2021/04/05 04:38:13;;;;;;;10.17;9.23;;;1.00;99.90;;;1.84;74.59;97363.31;5170509;28;20624;-55
2021/04/05 04:40:46;;;;;;;11.17;9.17;;;1.10;99.90;;;1.97;74.57;97358.50;5206170;28;20584;-57
2021/04/05 04:43:20;;;;;;;10.00;9.13;;;1.20;99.90;;;1.99;73.75;97346.91;5186106;28;20225;-56
2021/04/05 04:45:52;;;;;;;10.27;9.37;;;1.20;99.90;;;2.02;74.40;97347.16;5186340;28;20325;-57
2021/04/05 04:48:24;;;;;;;10.83;9.80;;;1.30;99.90;;;2.11;74.32;97347.91;5183851;28;20224;-59
2021/04/05 04:50:56;;;;;;;10.17;9.17;;;1.40;99.90;;;2.14;73.97;97338.06;5185388;28;20287;-58
2021/04/05 04:53:28;;;;;;;10.80;9.80;;;1.40;99.90;;;2.24;74.00;97337.19;5169460;28;20223;-57
2021/04/05 04:56:00;;;;;;;9.90;8.90;;;1.40;99.90;;;2.27;73.95;97345.00;5168713;28;20211;-56
2021/04/05 04:58:33;;;;;;;10.53;9.63;;;1.50;99.90;;;2.29;73.23;97332.50;5185878;28;20231;-56
2021/04/05 05:01:06;;;;;;;10.63;9.33;;;1.40;99.90;;;2.38;72.16;97338.28;5194788;28;20206;-53
2021/04/05 05:03:44;;;;;;;12.03;8.50;;;1.50;99.90;;;2.57;70.97;97323.84;5207970;28;20226;-57
2021/04/05 05:06:19;;;;;;;9.53;8.70;;;1.40;99.90;;;2.44;72.25;97321.13;5193967;28;20283;-57
2021/04/05 05:08:52;;;;;;;9.97;8.90;;;1.50;99.90;;;2.44;71.48;97321.13;5186263;28;20233;-57
2021/04/05 05:11:25;;;;;;;9.47;8.37;;;1.50;99.90;;;2.41;72.09;97323.41;5175439;28;20230;-55
2021/04/05 05:13:58;;;;;;;9.50;8.60;;;1.50;99.90;;;2.31;72.27;97318.38;5168237;28;20307;-54
2021/04/05 05:16:31;;;;;;;9.63;8.73;;;1.40;99.90;;;2.32;71.88;97310.03;5192752;28;20199;-55
2021/04/05 05:19:04;;;;;;;10.37;9.10;;;1.40;99.90;;;2.36;72.26;97299.47;5196940;28;20673;-54
2021/04/05 05:21:44;;;;;;;11.87;10.63;;;1.40;99.90;;;2.49;72.04;97292.13;5178884;28;20204;-58
2021/04/05 05:24:21;;;;;;;12.37;11.17;;;1.50;99.90;;;2.42;72.63;97283.16;5170537;28;20257;-56
2021/04/05 05:26:54;;;;;;;11.17;10.07;;;1.50;99.90;;;2.41;72.46;97275.50;5182493;28;20211;-56
2021/04/05 05:29:28;;;;;;;10.57;9.57;;;1.50;99.90;;;2.44;72.21;97283.28;5166654;28;20745;-58
2021/04/05 05:32:00;;;;;;;9.97;9.00;;;1.60;99.90;;;2.52;72.38;97266.22;5183410;28;20233;-57
2021/04/05 05:34:33;;;;;;;10.60;9.60;;;1.70;99.90;;;2.59;72.34;97266.81;5186650;28;20323;-55
2021/04/05 05:37:05;;;;;;;10.67;8.97;;;1.70;99.90;;;2.67;73.10;97262.38;5176846;28;20571;-54
2021/04/05 05:39:37;;;;;;;87.57;49.40;;;1.90;99.90;;;2.81;73.61;97260.94;5178113;28;20199;-57
2021/04/05 05:42:17;;;;;;;48.53;29.20;;;2.00;99.90;;;2.97;73.09;97247.81;5185249;28;20413;-57
2021/04/05 05:45:02;;;;;;;13.97;11.67;;;2.20;99.90;;;3.15;71.49;97249.22;5186713;28;20240;-54
2021/04/05 05:47:47;;;;;;;12.30;10.93;;;2.10;99.90;;;3.17;71.62;97235.06;5167352;28;20328;-58
2021/04/05 05:50:28;;;;;;;10.70;9.70;;;2.20;99.90;;;3.15;71.14;97240.00;5166822;28;20257;-55
2021/04/05 05:53:19;;;;;;;10.57;9.60;;;2.20;99.90;;;3.14;71.65;97229.78;5174335;28;20488;-55
2021/04/05 05:56:07;;;;;;;10.73;9.73;;;2.20;99.90;;;3.14;70.99;97239.88;5202417;28;20554;-56
2021/04/05 05:58:46;;;;;;;10.07;9.17;;;2.20;99.90;;;3.24;71.07;97228.84;5166981;28;20290;-57
2021/04/05 06:01:39;;;;;;;11.10;10.10;;;2.30;99.90;;;3.34;71.35;97237.19;5174845;28;20217;-56
2021/04/05 06:04:28;;;;;;;11.33;10.23;;;2.40;99.90;;;3.33;72.30;97234.56;5202290;28;20240;-56
2021/04/05 06:07:07;;;;;;;10.50;9.40;;;2.50;99.90;;;3.56;72.24;97229.56;5179013;28;20670;-55
2021/04/05 06:09:59;;;;;;;15.73;11.20;;;2.70;99.90;;;3.74;70.90;97219.91;5180504;28;20313;-56
2021/04/05 06:12:43;;;;;;;16.90;12.83;;;2.80;99.90;;;3.82;70.48;97207.84;5184250;28;20202;-55
2021/04/05 06:15:23;;;;;;;10.70;9.37;;;2.80;99.90;;;3.90;70.07;97216.84;5175977;28;20809;-52
2021/04/05 06:18:21;;;;;;;9.97;9.03;;;2.80;99.90;;;3.95;70.51;97230.72;5169119;28;20290;-55
2021/04/05 06:21:05;;;;;;;10.60;9.13;;;2.90;99.90;;;4.11;71.18;97221.69;5174484;28;20274;-54
2021/04/05 06:23:41;;;;;;;9.77;8.83;;;3.10;99.90;;;4.24;70.53;97222.66;5165672;28;20223;-57
2021/04/05 06:26:28;;;;;;;11.83;8.97;;;3.30;99.90;;;4.39;69.53;97212.75;5184402;28;20289;-54
2021/04/05 06:29:14;;;;;;;10.27;9.07;;;3.30;99.90;;;4.37;69.35;97199.09;5181159;28;20218;-55
2021/04/05 06:32:09;;;;;;;10.40;9.50;;;3.30;99.90;;;4.51;69.74;97198.41;5177132;28;20297;-56
2021/04/05 06:35:09;;;;;;;9.67;8.80;;;3.50;99.90;;;4.75;69.25;97190.78;5182460;28;20233;-53
2021/04/05 06:37:47;;;;;;;9.87;8.70;;;3.70;99.90;;;5.16;69.28;97180.00;5175558;28;20199;-54
2021/04/05 06:40:24;;;;;;;9.73;8.70;;;4.10;99.90;;;5.78;67.10;97180.72;5193884;28;20220;-56
2021/04/05 06:43:36;;;;;;;12.83;10.67;;;4.60;99.90;;;6.49;64.94;97164.84;5179737;28;20266;-54
2021/04/05 06:46:26;;;;;;;11.97;9.87;;;5.30;99.90;;;7.17;61.33;97168.13;5185133;28;20293;-54
2021/04/05 06:49:40;;;;;;;11.20;9.70;;;5.80;99.90;;;7.67;59.29;97164.22;5172732;28;20294;-56
2021/04/05 06:52:28;;;;;;;10.77;9.63;;;6.30;99.50;;;7.89;57.95;97156.09;5182153;28;20654;-57
2021/04/05 06:55:28;;;;;;;11.67;10.47;;;6.60;98.80;;;8.04;58.12;97156.06;5184438;28;20201;-58
2021/04/05 06:58:24;;;;;;;12.10;9.87;;;6.60;98.80;;;7.89;57.83;97138.28;5181482;28;20199;-59
2021/04/05 07:01:30;;;;;;;11.63;9.43;;;6.60;98.40;;;7.85;57.80;97128.75;5176987;28;20194;-56
2021/04/05 07:04:47;;;;;;;10.07;9.00;;;6.60;98.30;;;7.79;57.72;97128.41;5180251;28;20222;-59
2021/04/05 07:07:30;;;;;;;11.80;9.30;;;6.60;98.20;;;7.65;58.30;97136.13;5167691;28;20569;-57
2021/04/05 07:10:07;;;;;;;8.20;7.13;;;6.60;98.00;;;7.68;57.80;97131.22;5173306;28;20308;-55
2021/04/05 07:12:51;;;;;;;10.17;6.70;;;6.80;97.10;;;7.90;55.75;97124.81;5182807;28;20228;-58
2021/04/05 07:15:34;;;;;;;7.80;7.00;;;7.00;95.90;;;8.16;54.54;97118.59;5192070;28;20277;-59
2021/04/05 07:18:21;;;;;;;8.63;7.00;;;7.30;95.50;;;8.33;54.39;97119.50;5182648;28;20205;-58
2021/04/05 07:21:16;;;;;;;10.20;7.63;;;7.40;95.00;;;8.55;53.41;97126.63;5170022;28;20257;-60
2021/04/05 07:24:09;;;;;;;8.73;6.83;;;7.60;94.40;;;8.70;52.41;97129.09;5181797;28;20596;-57
2021/04/05 07:26:50;;;;;;;9.43;7.20;;;7.80;93.80;;;8.75;52.55;97120.03;5166871;28;20218;-59
2021/04/05 07:29:28;;;;;;;9.77;7.43;;;7.90;93.50;;;8.86;51.91;97118.03;5178097;28;20222;-58
2021/04/05 07:32:13;;;;;;;8.30;6.23;;;7.90;93.60;;;8.97;52.01;97122.88;5180627;28;20213;-57
2021/04/05 07:35:02;;;;;;;8.13;6.73;;;8.00;93.10;;;9.11;51.42;97122.72;5181650;28;20321;-57
2021/04/05 07:37:48;;;;;;;9.13;6.67;;;8.10;93.20;;;9.21;50.43;97128.38;5181494;28;20666;-59
2021/04/05 07:40:42;;;;;;;7.90;6.20;;;8.20;92.80;;;9.34;51.11;97118.78;5182524;28;20190;-56
2021/04/05 07:43:23;;;;;;;9.67;7.03;;;8.40;92.60;;;9.40;51.05;97125.03;5172696;28;20301;-57
2021/04/05 07:46:10;;;;;;;8.03;6.37;;;8.40;93.00;;;9.54;51.15;97127.41;5189035;28;20280;-55
2021/04/05 07:49:05;;;;;;;8.70;5.97;;;8.50;92.60;;;9.69;50.38;97117.94;5188935;28;20203;-56
2021/04/05 07:51:49;;;;;;;7.53;6.20;;;8.60;92.10;;;9.89;48.54;97112.09;5184793;28;20211;-57
2021/04/05 07:54:26;;;;;;;7.83;5.90;;;8.70;91.90;;;9.83;48.58;97105.84;5179196;28;20588;-58
2021/04/05 07:57:10;;;;;;;8.47;5.80;;;8.80;91.60;;;9.97;49.59;97103.94;5186542;28;20200;-58
2021/04/05 07:59:58;;;;;;;8.33;6.70;;;8.90;92.10;;;10.19;49.82;97105.78;5165491;28;20290;-59
2021/04/05 08:03:01;;;;;;;7.57;6.23;;;9.10;91.80;;;10.71;48.50;97108.22;5164742;28;20573;-60
2021/04/05 08:05:50;;;;;;;7.17;6.00;;;9.50;91.30;;;10.94;46.96;97099.84;5164083;28;20249;-55
2021/04/05 08:08:39;;;;;;;9.43;6.20;;;9.90;90.50;;;11.09;46.53;97103.88;5183004;28;20341;-58
2021/04/05 08:11:28;;;;;;;8.17;5.93;;;10.00;90.00;;;11.18;46.73;97096.59;5174013;28;20225;-59
2021/04/05 08:14:14;;;;;;;7.83;6.17;;;10.10;90.00;;;11.38;45.70;97085.50;5181420;28;20233;-60
2021/04/05 08:16:57;;;;;;;8.50;6.33;;;10.30;88.80;;;11.45;45.45;97087.50;5173491;28;20644;-58
2021/04/05 08:19:44;;;;;;;8.40;5.67;;;10.30;88.70;;;11.51;45.39;97089.44;5180619;28;20670;-59
2021/04/05 08:22:29;;;;;;;7.23;6.03;;;10.30;88.40;;;11.72;45.22;97076.63;5179219;28;20760;-58
2021/04/05 08:25:26;;;;;;;6.33;5.60;;;10.50;88.40;;;11.96;44.85;97071.66;5182115;28;20209;-59
2021/04/05 08:28:07;;;;;;;7.87;6.00;;;10.70;87.00;;;12.11;43.63;97067.09;5178193;28;20230;-61
2021/04/05 08:30:51;;;;;;;6.50;5.90;;;10.90;85.90;;;12.25;44.02;97065.06;5178675;28;20720;-61
2021/04/05 08:33:34;;;;;;;7.37;6.13;;;11.10;85.20;;;12.46;43.63;97054.72;5180840;28;20226;-60
2021/04/05 08:36:16;;;;;;;8.93;5.57;;;11.40;84.70;;;12.63;42.26;97063.03;5179421;28;20198;-60
2021/04/05 08:38:58;;;;;;;9.60;5.97;;;11.70;82.90;;;12.80;42.06;97058.50;5181195;28;20290;-60
2021/04/05 08:41:58;;;;;;;7.40;5.33;;;11.90;82.10;;;12.75;42.51;97052.34;5165100;28;20209;-60
2021/04/05 08:44:38;;;;;;;7.15;5.78;;;11.70;82.50;;;12.84;42.22;97052.66;5185255;28;20313;-61
2021/04/05 08:47:17;;;;;;;8.07;5.85;;;11.80;82.70;;;13.18;40.87;97035.84;5185176;28;20286;-59
2021/04/05 08:49:51;;;;;;;7.97;6.07;;;12.20;81.50;;;13.24;41.79;97043.75;5185221;28;20595;-60
2021/04/05 08:52:27;;;;;;;7.97;6.53;;;12.30;81.60;;;13.48;41.92;97039.47;5184744;28;20294;-60
2021/04/05 08:55:02;;;;;;;7.05;5.93;;;12.60;80.70;;;13.38;40.63;97042.56;5185582;28;20206;-60
2021/04/05 08:57:40;;;;;;;6.15;5.55;;;12.50;80.20;;;13.42;41.28;97030.69;5184682;28;20289;-59
2021/04/05 09:00:14;;;;;;;7.30;5.75;;;12.50;80.90;;;13.32;40.83;97026.94;5185418;28;20191;-61
2021/04/05 09:02:53;;;;;;;6.43;5.15;;;12.30;80.60;;;13.40;42.29;97014.38;5184258;28;20257;-61
2021/04/05 09:05:28;;;;;;;6.80;5.05;;;12.20;81.70;;;13.63;40.72;97015.97;5184539;28;20230;-61
2021/04/05 09:08:05;;;;;;;6.60;5.90;;;12.60;81.20;;;13.83;41.61;97010.59;5185052;28;20581;-60
2021/04/05 09:10:48;;;;;;;9.15;5.97;;;12.90;80.80;;;14.03;40.90;97009.50;5184652;28;20258;-60
2021/04/05 09:13:22;;;;;;;8.15;5.57;;;13.20;79.30;;;14.29;39.72;96999.97;5184663;28;20254;-60
2021/04/05 09:16:53;;;;;;;11.52;5.50;;;13.40;79.30;;;14.40;40.53;97001.13;5184695;28;20713;-60
2021/04/05 09:20:12;;;;;;;7.63;5.78;;;13.40;79.80;;;14.60;40.28;96994.00;5176206;28;20202;-59
2021/04/05 09:23:25;;;;;;;9.65;5.53;;;13.50;79.40;;;14.73;40.01;96990.06;5184448;28;20310;-61
2021/04/05 09:26:49;;;;;;;9.70;5.95;;;13.60;79.10;;;14.79;39.14;96979.06;5183794;28;20302;-60
2021/04/05 09:29:38;;;;;;;7.93;5.63;;;13.70;78.60;;;14.96;39.26;96972.63;5169319;28;20344;-61
2021/04/05 09:32:44;;;;;;;7.80;5.30;;;14.00;78.20;;;15.04;39.72;96970.25;5180569;28;20729;-61
2021/04/05 09:35:35;;;;;;;7.03;5.53;;;13.90;79.30;;;14.98;38.92;96960.69;5184191;28;20208;-59
2021/04/05 09:38:56;;;;;;;6.85;5.43;;;13.90;77.60;;;15.20;38.80;96956.94;5184720;28;20213;-61
2021/04/05 09:41:52;;;;;;;7.85;5.57;;;14.10;78.40;;;15.29;38.46;96944.28;5150295;28;20203;-60
2021/04/05 09:44:48;;;;;;;7.13;5.72;;;14.20;77.00;;;15.33;38.28;96943.50;5169959;28;20210;-59
2021/04/05 09:47:41;;;;;;;8.48;5.65;;;14.10;77.30;;;15.53;38.18;96935.38;5184632;28;20197;-60
2021/04/05 09:50:28;;;;;;;6.68;5.18;;;14.10;77.90;;;15.64;37.57;96933.91;5178887;28;20219;-61
2021/04/05 09:53:17;;;;;;;6.75;5.03;;;14.30;76.90;;;15.79;36.66;96932.56;5183646;28;20229;-60
2021/04/05 09:55:53;;;;;;;8.40;4.80;;;14.60;74.30;;;15.81;35.87;96924.03;5174313;28;20226;-59
2021/04/05 09:58:28;;;;;;;5.82;4.45;;;14.50;73.60;;;15.81;35.59;96925.72;5184292;28;20225;-62
2021/04/05 10:01:05;;;;;;;6.45;3.40;;;14.50;72.70;;;15.67;32.88;96917.66;5181990;28;20257;-61
2021/04/05 10:03:42;;;;;;;7.50;3.97;;;14.60;67.60;;;15.50;33.42;96919.88;5181464;28;20229;-61
2021/04/05 10:06:19;;;;;;;6.95;3.70;;;14.30;68.60;;;15.16;33.06;96907.91;5183675;28;20194;-61
2021/04/05 10:08:53;;;;;;;6.28;4.00;;;14.30;67.10;;;15.19;33.48;96911.44;5183686;28;20212;-60
2021/04/05 10:11:28;;;;;;;5.57;3.70;;;14.00;68.00;;;15.23;33.78;96899.53;5183412;28;20312;-60
2021/04/05 10:14:05;;;;;;;9.50;4.15;;;14.10;68.90;;;15.17;32.97;96899.38;5181537;28;20329;-57
2021/04/05 10:16:38;;;;;;;8.43;4.05;;;14.20;66.70;;;15.04;33.39;96898.22;5181479;28;20261;-62
2021/04/05 10:19:12;;;;;;;9.77;4.18;;;14.00;67.70;;;14.94;33.95;96901.41;5168595;28;20204;-62
2021/04/05 10:21:56;;;;;;;9.93;3.90;;;13.80;68.50;;;14.91;33.30;96899.63;5175422;28;20195;-61
2021/04/05 10:24:31;;;;;;;8.63;3.90;;;13.80;68.00;;;14.70;33.58;96896.50;5183620;28;20211;-62
2021/04/05 10:27:06;;;;;;;9.13;4.22;;;13.70;67.30;;;14.54;33.63;96900.41;5183731;28;20293;-62
2021/04/05 10:29:39;;;;;;;7.13;4.28;;;13.60;68.20;;;14.54;33.98;96885.84;5183861;28;20258;-62
2021/04/05 10:32:18;;;;;;;8.65;4.22;;;13.60;67.50;;;14.48;33.58;96887.31;5183152;28;20234;-61
2021/04/05 10:34:56;;;;;;;7.20;3.80;;;13.50;67.90;;;14.32;34.48;96888.63;5183945;28;20297;-62
2021/04/05 10:37:34;;;;;;;7.05;3.70;;;13.40;68.20;;;14.25;34.24;96887.63;5168434;28;20591;-61
2021/04/05 10:40:11;;;;;;;9.05;4.38;;;13.40;68.30;;;14.20;34.48;96887.47;5170484;28;20203;-61
2021/04/05 10:42:48;;;;;;;6.97;4.05;;;13.30;68.80;;;14.23;34.34;96879.00;5170555;28;20297;-62
2021/04/05 10:45:23;;;;;;;4.85;3.63;;;13.30;68.80;;;14.33;33.87;96880.94;5166060;28;20203;-61
2021/04/05 10:48:05;;;;;;;8.93;4.63;;;13.40;68.70;;;14.35;34.54;96869.03;5175178;28;20229;-61
2021/04/05 10:50:47;;;;;;;6.90;3.88;;;13.50;68.10;;;14.35;34.75;96881.00;5181806;28;20309;-61
2021/04/05 10:53:22;;;;;;;6.28;4.50;;;13.50;68.60;;;14.27;33.88;96872.22;5182543;28;20297;-61
2021/04/05 10:56:03;;;;;;;6.90;4.00;;;13.40;67.70;;;14.38;34.29;96874.25;5173766;28;20199;-62
2021/04/05 10:58:45;;;;;;;8.65;4.20;;;13.50;68.60;;;14.34;34.52;96866.44;5165281;28;20291;-62
2021/04/05 11:01:19;;;;;;;6.05;4.20;;;13.50;68.30;;;14.40;35.05;96862.31;5183550;28;20233;-62
2021/04/05 11:03:53;;;;;;;6.03;3.97;;;13.50;69.00;;;14.27;34.90;96865.38;5181933;28;20297;-61
2021/04/05 11:06:29;;;;;;;7.22;4.57;;;13.40;69.30;;;14.26;34.74;96853.38;5180632;28;20664;-61
2021/04/05 11:09:06;;;;;;;6.97;4.30;;;13.40;68.70;;;14.14;35.02;96853.03;5182683;28;20732;-61
2021/04/05 11:11:40;;;;;;;8.85;4.00;;;13.30;68.80;;;14.25;34.93;96849.06;5181022;28;20306;-62
2021/04/05 11:14:16;;;;;;;5.97;3.85;;;13.40;68.90;;;14.23;35.34;96848.16;5182060;28;20697;-61
2021/04/05 11:16:50;;;;;;;6.57;4.55;;;13.40;68.60;;;14.25;34.12;96861.00;5181862;28;20508;-61
2021/04/05 11:19:32;;;;;;;7.50;4.03;;;13.40;68.30;;;14.37;35.47;96851.94;5173192;28;20210;-62